Impacts TAF Board
For situational awareness. Not to be used for flight planning purposes.
IDs:

KEGE - Eagle Cnty Rgnl, CO, US

Issued at 0531 UTC 27 Feb 2020
Updated at 0808 UTC 27 Feb 2020
Potential Impact None Slight Moderate High
Time0756Z 27/09Z 27/10Z 27/11Z 27/12Z 27/13Z 27/14Z 27/15Z 27/16Z 27/17Z 27/18Z 27/19Z 27/20Z 27/21Z>>
Type OBS PRVL PRVL PRVL PRVL PRVL PRVL PRVL PRVL PRVL PRVL PRVL PRVL PRVL
VIS 10 >6 >6 >6 >6 >6 >6 >6 >6 >6 >6 >6 >6 >6
CIG 80 45 45 45 45 45 45 45 45 45 45 45 -- --
Cover OVC OVC OVC OVC OVC OVC OVC OVC OVC OVC OVC OVC FEW FEW
FltCat VFR VFR VFR VFR VFR VFR VFR VFR VFR VFR VFR VFR VFR VFR
WX -- -- -- -- -- -- -- -- -- -- -- -- -- --
WDir 90 210 210 210 210 210 210 210 210 210 210 210 240 240
WSpd 7 4 4 4 4 4 4 4 4 4 4 4 9 9
WGst -- -- -- -- -- -- -- -- -- -- -- -- 17 17
Raw TAF
KEGE 270531Z 2706/2806 VRB03KT P6SM OVC060
  FM270900 21004KT P6SM BKN045 OVC060
  FM272000 24009G17KT P6SM FEW060 FEW200
  FM280000 25008KT P6SM FEW060 BKN100
  FM280400 16005KT P6SM FEW080 BKN250


Raw METAR
KEGE 270756Z AUTO 09007KT 10SM OVC080 M06/M11 A3033 RMK AO2 SLP331 T10561106 FZRANO PNO $
KEGE 270656Z AUTO 09005KT 10SM OVC080 M06/M11 A3034 RMK AO2 SLP327 T10611111 FZRANO PNO $
KEGE 270556Z AUTO 11004KT 10SM OVC070 M06/M12 A3035 RMK AO2 SLP337 6//// T10611117 11017 21067 400171217 50000 FZRANO PNO $

METAR Board
Radar Display
Forecast Discussion
For situational awareness. Not to be used for flight planning purposes.